sensor_id;sensor_type;location;lat;lon;timestamp;temperature;humidity
15991;DHT22;8100;50.994;4.538;2023-08-17T00:01:59;18.80;55.50
15991;DHT22;8100;50.994;4.538;2023-08-17T00:04:46;18.70;81.10
15991;DHT22;8100;50.994;4.538;2023-08-17T00:07:35;18.60;75.70
15991;DHT22;8100;50.994;4.538;2023-08-17T00:10:23;18.50;99.90
15991;DHT22;8100;50.994;4.538;2023-08-17T00:13:10;18.40;99.90
15991;DHT22;8100;50.994;4.538;2023-08-17T00:15:58;18.30;99.90
15991;DHT22;8100;50.994;4.538;2023-08-17T00:18:45;18.30;99.90
15991;DHT22;8100;50.994;4.538;2023-08-17T00:21:32;18.30;99.90
15991;DHT22;8100;50.994;4.538;2023-08-17T00:24:21;18.30;99.90
15991;DHT22;8100;50.994;4.538;2023-08-17T00:27:08;18.30;99.90
15991;DHT22;8100;50.994;4.538;2023-08-17T00:29:55;18.30;99.90
15991;DHT22;8100;50.994;4.538;2023-08-17T00:32:43;18.20;1.00
15991;DHT22;8100;50.994;4.538;2023-08-17T00:35:30;18.10;1.00
15991;DHT22;8100;50.994;4.538;2023-08-17T00:38:18;18.00;1.00
15991;DHT22;8100;50.994;4.538;2023-08-17T00:41:07;18.00;1.00
15991;DHT22;8100;50.994;4.538;2023-08-17T00:43:54;17.90;1.00
15991;DHT22;8100;50.994;4.538;2023-08-17T00:46:42;17.90;1.00
15991;DHT22;8100;50.994;4.538;2023-08-17T00:49:29;17.80;1.00
15991;DHT22;8100;50.994;4.538;2023-08-17T00:52:17;17.80;49.40
15991;DHT22;8100;50.994;4.538;2023-08-17T00:55:05;17.80;90.10
15991;DHT22;8100;50.994;4.538;2023-08-17T00:57:56;17.80;99.90
15991;DHT22;8100;50.994;4.538;2023-08-17T01:00:43;17.80;99.90
15991;DHT22;8100;50.994;4.538;2023-08-17T01:03:32;17.90;99.90
15991;DHT22;8100;50.994;4.538;2023-08-17T01:06:19;17.90;99.90
15991;DHT22;8100;50.994;4.538;2023-08-17T01:09:07;18.00;99.90
15991;DHT22;8100;50.994;4.538;2023-08-17T01:12:00;18.10;98.00
15991;DHT22;8100;50.994;4.538;2023-08-17T01:15:11;18.10;96.50
15991;DHT22;8100;50.994;4.538;2023-08-17T01:18:04;18.20;95.90
15991;DHT22;8100;50.994;4.538;2023-08-17T01:20:57;18.10;96.90
15991;DHT22;8100;50.994;4.538;2023-08-17T01:23:46;18.10;99.90
15991;DHT22;8100;50.994;4.538;2023-08-17T01:26:35;18.00;99.90
15991;DHT22;8100;50.994;4.538;2023-08-17T01:29:23;17.90;99.90
15991;DHT22;8100;50.994;4.538;2023-08-17T01:32:15;17.90;99.90
15991;DHT22;8100;50.994;4.538;2023-08-17T01:35:09;17.90;99.90
15991;DHT22;8100;50.994;4.538;2023-08-17T01:38:00;17.90;99.90
15991;DHT22;8100;50.994;4.538;2023-08-17T01:40:52;17.80;99.90
15991;DHT22;8100;50.994;4.538;2023-08-17T01:43:41;17.90;99.90
15991;DHT22;8100;50.994;4.538;2023-08-17T01:46:32;17.90;99.90
15991;DHT22;8100;50.994;4.538;2023-08-17T01:49:20;17.80;99.90
15991;DHT22;8100;50.994;4.538;2023-08-17T01:52:07;17.90;99.90
15991;DHT22;8100;50.994;4.538;2023-08-17T01:54:54;17.80;99.90
15991;DHT22;8100;50.994;4.538;2023-08-17T01:57:43;17.80;99.90
15991;DHT22;8100;50.994;4.538;2023-08-17T02:00:30;17.80;99.90
15991;DHT22;8100;50.994;4.538;2023-08-17T02:03:18;17.80;99.90
15991;DHT22;8100;50.994;4.538;2023-08-17T02:06:06;17.80;99.90
15991;DHT22;8100;50.994;4.538;2023-08-17T02:08:53;17.70;99.90
15991;DHT22;8100;50.994;4.538;2023-08-17T02:11:41;17.70;99.90
15991;DHT22;8100;50.994;4.538;2023-08-17T02:14:29;17.70;99.90
15991;DHT22;8100;50.994;4.538;2023-08-17T02:17:18;17.70;99.90
15991;DHT22;8100;50.994;4.538;2023-08-17T02:20:08;17.70;99.90
15991;DHT22;8100;50.994;4.538;2023-08-17T02:22:56;17.70;99.90
15991;DHT22;8100;50.994;4.538;2023-08-17T02:25:43;17.70;99.90
15991;DHT22;8100;50.994;4.538;2023-08-17T02:28:30;17.70;99.90
15991;DHT22;8100;50.994;4.538;2023-08-17T02:31:19;17.70;99.90
15991;DHT22;8100;50.994;4.538;2023-08-17T02:34:06;17.60;99.90
15991;DHT22;8100;50.994;4.538;2023-08-17T02:36:55;17.60;99.90
15991;DHT22;8100;50.994;4.538;2023-08-17T02:39:42;17.50;99.90
15991;DHT22;8100;50.994;4.538;2023-08-17T02:42:30;17.50;99.90
15991;DHT22;8100;50.994;4.538;2023-08-17T02:45:17;17.40;99.90
15991;DHT22;8100;50.994;4.538;2023-08-17T02:48:06;17.30;99.90
15991;DHT22;8100;50.994;4.538;2023-08-17T02:50:53;17.20;99.90
15991;DHT22;8100;50.994;4.538;2023-08-17T02:53:41;17.10;99.90
15991;DHT22;8100;50.994;4.538;2023-08-17T02:56:28;17.10;99.90
15991;DHT22;8100;50.994;4.538;2023-08-17T02:59:15;17.00;99.90
15991;DHT22;8100;50.994;4.538;2023-08-17T03:02:02;17.00;99.90
15991;DHT22;8100;50.994;4.538;2023-08-17T03:04:51;16.90;99.90
15991;DHT22;8100;50.994;4.538;2023-08-17T03:07:38;16.90;99.90
15991;DHT22;8100;50.994;4.538;2023-08-17T03:10:25;16.90;99.90
15991;DHT22;8100;50.994;4.538;2023-08-17T03:13:13;16.90;99.90
15991;DHT22;8100;50.994;4.538;2023-08-17T03:16:00;16.90;99.90
15991;DHT22;8100;50.994;4.538;2023-08-17T03:18:47;16.90;99.90
15991;DHT22;8100;50.994;4.538;2023-08-17T03:21:36;16.90;99.90
15991;DHT22;8100;50.994;4.538;2023-08-17T03:24:23;16.90;99.90
15991;DHT22;8100;50.994;4.538;2023-08-17T03:27:10;16.90;99.90
15991;DHT22;8100;50.994;4.538;2023-08-17T03:29:58;16.80;99.90
15991;DHT22;8100;50.994;4.538;2023-08-17T03:32:45;16.80;99.90
15991;DHT22;8100;50.994;4.538;2023-08-17T03:35:32;16.80;99.90
15991;DHT22;8100;50.994;4.538;2023-08-17T03:38:21;16.90;99.90
15991;DHT22;8100;50.994;4.538;2023-08-17T03:41:08;16.90;99.90
15991;DHT22;8100;50.994;4.538;2023-08-17T03:43:56;16.90;99.90
15991;DHT22;8100;50.994;4.538;2023-08-17T03:46:43;17.00;99.90
15991;DHT22;8100;50.994;4.538;2023-08-17T03:49:30;17.10;99.90
15991;DHT22;8100;50.994;4.538;2023-08-17T03:52:18;17.10;99.90
15991;DHT22;8100;50.994;4.538;2023-08-17T03:55:07;17.10;99.90
15991;DHT22;8100;50.994;4.538;2023-08-17T03:57:54;17.20;99.90
15991;DHT22;8100;50.994;4.538;2023-08-17T04:00:41;17.10;99.90
15991;DHT22;8100;50.994;4.538;2023-08-17T04:03:29;17.20;99.90
15991;DHT22;8100;50.994;4.538;2023-08-17T04:06:16;17.20;99.90
15991;DHT22;8100;50.994;4.538;2023-08-17T04:09:04;17.10;99.90
15991;DHT22;8100;50.994;4.538;2023-08-17T04:11:52;17.10;99.90
15991;DHT22;8100;50.994;4.538;2023-08-17T04:14:40;17.10;99.90
15991;DHT22;8100;50.994;4.538;2023-08-17T04:17:28;17.10;99.90
15991;DHT22;8100;50.994;4.538;2023-08-17T04:20:15;17.10;99.90
15991;DHT22;8100;50.994;4.538;2023-08-17T04:23:04;17.20;99.90
15991;DHT22;8100;50.994;4.538;2023-08-17T04:25:51;17.20;99.90
15991;DHT22;8100;50.994;4.538;2023-08-17T04:28:42;17.20;99.90
15991;DHT22;8100;50.994;4.538;2023-08-17T04:31:29;17.20;99.90
15991;DHT22;8100;50.994;4.538;2023-08-17T04:34:16;17.30;99.90
15991;DHT22;8100;50.994;4.538;2023-08-17T04:37:04;17.20;99.90
15991;DHT22;8100;50.994;4.538;2023-08-17T04:39:51;17.30;99.90
15991;DHT22;8100;50.994;4.538;2023-08-17T04:42:38;17.20;99.90
15991;DHT22;8100;50.994;4.538;2023-08-17T04:45:27;17.20;99.90
15991;DHT22;8100;50.994;4.538;2023-08-17T04:48:14;17.20;99.90
15991;DHT22;8100;50.994;4.538;2023-08-17T04:51:01;17.30;99.90
15991;DHT22;8100;50.994;4.538;2023-08-17T04:53:49;17.30;99.90
15991;DHT22;8100;50.994;4.538;2023-08-17T04:56:36;17.30;99.90
15991;DHT22;8100;50.994;4.538;2023-08-17T04:59:24;17.30;99.90
15991;DHT22;8100;50.994;4.538;2023-08-17T05:02:12;17.30;99.90
15991;DHT22;8100;50.994;4.538;2023-08-17T05:05:02;17.30;99.90
15991;DHT22;8100;50.994;4.538;2023-08-17T05:07:49;17.30;99.90
15991;DHT22;8100;50.994;4.538;2023-08-17T05:10:37;17.40;99.90
15991;DHT22;8100;50.994;4.538;2023-08-17T05:13:24;17.30;99.90
15991;DHT22;8100;50.994;4.538;2023-08-17T05:16:11;17.30;99.90
15991;DHT22;8100;50.994;4.538;2023-08-17T05:19:00;17.40;99.90
15991;DHT22;8100;50.994;4.538;2023-08-17T05:21:47;17.40;99.90
15991;DHT22;8100;50.994;4.538;2023-08-17T05:24:37;17.40;99.90
15991;DHT22;8100;50.994;4.538;2023-08-17T05:27:24;17.40;99.90
15991;DHT22;8100;50.994;4.538;2023-08-17T05:30:12;17.40;99.90
15991;DHT22;8100;50.994;4.538;2023-08-17T05:32:59;17.50;99.90
15991;DHT22;8100;50.994;4.538;2023-08-17T05:35:53;17.50;99.90
15991;DHT22;8100;50.994;4.538;2023-08-17T05:38:40;17.50;99.90
15991;DHT22;8100;50.994;4.538;2023-08-17T05:41:27;17.50;99.90
15991;DHT22;8100;50.994;4.538;2023-08-17T05:44:15;17.60;99.90
15991;DHT22;8100;50.994;4.538;2023-08-17T05:47:03;17.60;99.90
15991;DHT22;8100;50.994;4.538;2023-08-17T05:49:51;17.70;99.90
15991;DHT22;8100;50.994;4.538;2023-08-17T05:52:40;17.80;99.90
15991;DHT22;8100;50.994;4.538;2023-08-17T05:55:28;17.80;99.90
15991;DHT22;8100;50.994;4.538;2023-08-17T05:58:15;17.80;99.90
15991;DHT22;8100;50.994;4.538;2023-08-17T06:01:06;17.80;99.90
15991;DHT22;8100;50.994;4.538;2023-08-17T06:03:54;17.80;99.90
15991;DHT22;8100;50.994;4.538;2023-08-17T06:06:41;17.70;99.90
15991;DHT22;8100;50.994;4.538;2023-08-17T06:09:30;17.80;99.90
15991;DHT22;8100;50.994;4.538;2023-08-17T06:12:17;17.80;99.90
15991;DHT22;8100;50.994;4.538;2023-08-17T06:15:06;17.80;99.90
15991;DHT22;8100;50.994;4.538;2023-08-17T06:17:53;17.80;99.90
15991;DHT22;8100;50.994;4.538;2023-08-17T06:20:40;17.80;99.90
15991;DHT22;8100;50.994;4.538;2023-08-17T06:23:28;17.70;99.90
15991;DHT22;8100;50.994;4.538;2023-08-17T06:26:16;17.80;99.90
15991;DHT22;8100;50.994;4.538;2023-08-17T06:29:04;17.90;99.90
15991;DHT22;8100;50.994;4.538;2023-08-17T06:31:51;17.90;99.90
15991;DHT22;8100;50.994;4.538;2023-08-17T06:34:39;17.90;99.90
15991;DHT22;8100;50.994;4.538;2023-08-17T06:37:26;18.00;99.90
15991;DHT22;8100;50.994;4.538;2023-08-17T06:40:13;18.10;99.90
15991;DHT22;8100;50.994;4.538;2023-08-17T06:43:02;17.90;99.90
15991;DHT22;8100;50.994;4.538;2023-08-17T06:45:49;17.80;99.90
15991;DHT22;8100;50.994;4.538;2023-08-17T06:48:37;17.70;99.90
15991;DHT22;8100;50.994;4.538;2023-08-17T06:51:24;17.60;99.90
15991;DHT22;8100;50.994;4.538;2023-08-17T06:54:11;17.60;99.90
15991;DHT22;8100;50.994;4.538;2023-08-17T06:56:58;17.60;99.90
15991;DHT22;8100;50.994;4.538;2023-08-17T06:59:47;17.40;99.90
15991;DHT22;8100;50.994;4.538;2023-08-17T07:02:35;17.40;99.90
15991;DHT22;8100;50.994;4.538;2023-08-17T07:05:22;17.50;99.90
15991;DHT22;8100;50.994;4.538;2023-08-17T07:08:09;17.70;99.90
15991;DHT22;8100;50.994;4.538;2023-08-17T07:10:57;17.90;99.90
15991;DHT22;8100;50.994;4.538;2023-08-17T07:13:44;17.90;99.90
15991;DHT22;8100;50.994;4.538;2023-08-17T07:16:33;18.00;99.90
15991;DHT22;8100;50.994;4.538;2023-08-17T07:19:21;18.20;99.90
15991;DHT22;8100;50.994;4.538;2023-08-17T07:22:08;18.20;99.90
15991;DHT22;8100;50.994;4.538;2023-08-17T07:24:56;18.40;99.90
15991;DHT22;8100;50.994;4.538;2023-08-17T07:27:43;18.60;89.10
15991;DHT22;8100;50.994;4.538;2023-08-17T07:30:30;18.60;34.10
15991;DHT22;8100;50.994;4.538;2023-08-17T07:33:19;18.80;27.20
15991;DHT22;8100;50.994;4.538;2023-08-17T07:36:06;18.90;18.20
15991;DHT22;8100;50.994;4.538;2023-08-17T07:38:54;19.00;23.20
15991;DHT22;8100;50.994;4.538;2023-08-17T07:41:41;19.10;1.00
15991;DHT22;8100;50.994;4.538;2023-08-17T07:44:28;19.00;1.00
15991;DHT22;8100;50.994;4.538;2023-08-17T07:47:17;18.90;1.00
15991;DHT22;8100;50.994;4.538;2023-08-17T07:50:07;18.80;1.00
15991;DHT22;8100;50.994;4.538;2023-08-17T07:52:54;18.90;1.00
15991;DHT22;8100;50.994;4.538;2023-08-17T07:55:41;18.80;1.00
15991;DHT22;8100;50.994;4.538;2023-08-17T07:58:29;18.90;1.00
15991;DHT22;8100;50.994;4.538;2023-08-17T08:01:16;18.90;1.00
15991;DHT22;8100;50.994;4.538;2023-08-17T08:04:04;18.90;1.00
15991;DHT22;8100;50.994;4.538;2023-08-17T08:06:53;19.20;1.00
15991;DHT22;8100;50.994;4.538;2023-08-17T08:09:41;19.40;1.00
15991;DHT22;8100;50.994;4.538;2023-08-17T08:12:28;19.20;1.00
15991;DHT22;8100;50.994;4.538;2023-08-17T08:15:15;19.30;1.00
15991;DHT22;8100;50.994;4.538;2023-08-17T08:18:03;19.30;1.00
15991;DHT22;8100;50.994;4.538;2023-08-17T08:20:51;19.10;1.00
15991;DHT22;8100;50.994;4.538;2023-08-17T08:23:39;19.20;1.00
15991;DHT22;8100;50.994;4.538;2023-08-17T08:26:27;19.30;1.00
15991;DHT22;8100;50.994;4.538;2023-08-17T08:29:14;19.20;1.00
15991;DHT22;8100;50.994;4.538;2023-08-17T08:32:01;19.10;1.00
15991;DHT22;8100;50.994;4.538;2023-08-17T08:34:49;19.20;1.00
15991;DHT22;8100;50.994;4.538;2023-08-17T08:37:36;19.20;1.00
15991;DHT22;8100;50.994;4.538;2023-08-17T08:40:27;19.10;1.00
15991;DHT22;8100;50.994;4.538;2023-08-17T08:43:15;19.10;1.00
15991;DHT22;8100;50.994;4.538;2023-08-17T08:46:03;19.10;1.00
15991;DHT22;8100;50.994;4.538;2023-08-17T08:48:51;19.30;1.00
15991;DHT22;8100;50.994;4.538;2023-08-17T08:51:43;19.40;1.00
15991;DHT22;8100;50.994;4.538;2023-08-17T08:54:31;19.60;1.00
15991;DHT22;8100;50.994;4.538;2023-08-17T08:57:20;19.70;1.00
15991;DHT22;8100;50.994;4.538;2023-08-17T09:00:09;19.70;1.00
15991;DHT22;8100;50.994;4.538;2023-08-17T09:02:59;19.80;1.00
15991;DHT22;8100;50.994;4.538;2023-08-17T09:05:49;19.90;1.00
15991;DHT22;8100;50.994;4.538;2023-08-17T09:08:38;19.90;1.00
15991;DHT22;8100;50.994;4.538;2023-08-17T09:11:25;19.80;1.00
15991;DHT22;8100;50.994;4.538;2023-08-17T09:14:14;19.90;1.00
15991;DHT22;8100;50.994;4.538;2023-08-17T09:17:01;19.90;1.00
15991;DHT22;8100;50.994;4.538;2023-08-17T09:19:48;20.10;1.00
15991;DHT22;8100;50.994;4.538;2023-08-17T09:22:39;20.20;1.00
15991;DHT22;8100;50.994;4.538;2023-08-17T09:25:27;20.30;1.00
15991;DHT22;8100;50.994;4.538;2023-08-17T09:28:15;20.30;1.00
15991;DHT22;8100;50.994;4.538;2023-08-17T09:31:04;20.50;1.00
15991;DHT22;8100;50.994;4.538;2023-08-17T09:33:52;20.70;1.00
15991;DHT22;8100;50.994;4.538;2023-08-17T09:36:40;20.70;1.00
15991;DHT22;8100;50.994;4.538;2023-08-17T09:39:27;20.70;99.90
15991;DHT22;8100;50.994;4.538;2023-08-17T09:42:15;20.70;99.90
15991;DHT22;8100;50.994;4.538;2023-08-17T09:45:05;20.70;99.90
15991;DHT22;8100;50.994;4.538;2023-08-17T09:47:54;21.00;1.00
15991;DHT22;8100;50.994;4.538;2023-08-17T09:50:42;21.00;99.90
15991;DHT22;8100;50.994;4.538;2023-08-17T09:53:33;21.20;99.90
15991;DHT22;8100;50.994;4.538;2023-08-17T09:56:22;21.70;1.00
15991;DHT22;8100;50.994;4.538;2023-08-17T09:59:10;21.20;1.00
15991;DHT22;8100;50.994;4.538;2023-08-17T10:01:58;21.10;1.00
15991;DHT22;8100;50.994;4.538;2023-08-17T10:04:50;20.90;1.00
15991;DHT22;8100;50.994;4.538;2023-08-17T10:07:42;21.00;1.00
15991;DHT22;8100;50.994;4.538;2023-08-17T10:10:32;21.30;1.00
15991;DHT22;8100;50.994;4.538;2023-08-17T10:13:26;21.30;1.00
15991;DHT22;8100;50.994;4.538;2023-08-17T10:16:22;21.30;1.00
15991;DHT22;8100;50.994;4.538;2023-08-17T10:19:16;21.20;1.00
15991;DHT22;8100;50.994;4.538;2023-08-17T10:22:12;21.40;1.00
15991;DHT22;8100;50.994;4.538;2023-08-17T10:25:01;21.20;1.00
15991;DHT22;8100;50.994;4.538;2023-08-17T10:27:49;21.20;1.00
15991;DHT22;8100;50.994;4.538;2023-08-17T10:30:38;21.20;1.00
15991;DHT22;8100;50.994;4.538;2023-08-17T10:33:27;21.40;1.00
15991;DHT22;8100;50.994;4.538;2023-08-17T10:36:15;21.60;1.00
15991;DHT22;8100;50.994;4.538;2023-08-17T10:41:58;21.70;1.00
15991;DHT22;8100;50.994;4.538;2023-08-17T10:44:47;22.00;1.00
15991;DHT22;8100;50.994;4.538;2023-08-17T10:47:35;22.20;1.00
15991;DHT22;8100;50.994;4.538;2023-08-17T10:50:23;22.30;1.00
15991;DHT22;8100;50.994;4.538;2023-08-17T10:53:12;22.40;1.00
15991;DHT22;8100;50.994;4.538;2023-08-17T10:56:01;22.00;1.00
15991;DHT22;8100;50.994;4.538;2023-08-17T10:58:55;22.00;1.00
15991;DHT22;8100;50.994;4.538;2023-08-17T11:01:45;21.80;1.00
15991;DHT22;8100;50.994;4.538;2023-08-17T11:04:38;21.80;1.00
15991;DHT22;8100;50.994;4.538;2023-08-17T11:07:27;21.30;1.00
15991;DHT22;8100;50.994;4.538;2023-08-17T11:10:29;21.20;1.00
15991;DHT22;8100;50.994;4.538;2023-08-17T11:13:17;21.20;1.00
15991;DHT22;8100;50.994;4.538;2023-08-17T11:16:06;21.30;1.00
15991;DHT22;8100;50.994;4.538;2023-08-17T11:18:54;21.50;1.00
15991;DHT22;8100;50.994;4.538;2023-08-17T11:21:45;21.40;1.00
15991;DHT22;8100;50.994;4.538;2023-08-17T11:24:33;21.60;1.00
15991;DHT22;8100;50.994;4.538;2023-08-17T11:27:25;21.60;1.00
15991;DHT22;8100;50.994;4.538;2023-08-17T11:30:14;21.60;99.90
15991;DHT22;8100;50.994;4.538;2023-08-17T11:33:04;21.70;1.00
15991;DHT22;8100;50.994;4.538;2023-08-17T11:35:54;22.00;1.00
15991;DHT22;8100;50.994;4.538;2023-08-17T11:38:43;22.00;1.00
15991;DHT22;8100;50.994;4.538;2023-08-17T11:41:30;22.20;1.00
15991;DHT22;8100;50.994;4.538;2023-08-17T11:44:19;22.30;1.00
15991;DHT22;8100;50.994;4.538;2023-08-17T11:47:07;22.30;1.00
15991;DHT22;8100;50.994;4.538;2023-08-17T11:50:00;22.20;1.00
15991;DHT22;8100;50.994;4.538;2023-08-17T11:52:47;22.30;1.00
15991;DHT22;8100;50.994;4.538;2023-08-17T11:55:35;21.90;1.00
15991;DHT22;8100;50.994;4.538;2023-08-17T11:58:36;21.70;1.00
15991;DHT22;8100;50.994;4.538;2023-08-17T12:01:24;21.70;1.00
15991;DHT22;8100;50.994;4.538;2023-08-17T12:04:11;21.50;1.00
15991;DHT22;8100;50.994;4.538;2023-08-17T12:07:00;21.60;1.00
15991;DHT22;8100;50.994;4.538;2023-08-17T12:09:48;21.60;1.00
15991;DHT22;8100;50.994;4.538;2023-08-17T12:12:37;21.70;1.00
15991;DHT22;8100;50.994;4.538;2023-08-17T12:15:29;21.60;1.00
15991;DHT22;8100;50.994;4.538;2023-08-17T12:18:17;21.50;1.00
15991;DHT22;8100;50.994;4.538;2023-08-17T12:21:04;21.50;1.00
15991;DHT22;8100;50.994;4.538;2023-08-17T12:23:54;21.60;1.00
15991;DHT22;8100;50.994;4.538;2023-08-17T12:26:42;21.70;1.00
15991;DHT22;8100;50.994;4.538;2023-08-17T12:29:30;21.80;1.00
15991;DHT22;8100;50.994;4.538;2023-08-17T12:32:19;21.80;1.00
15991;DHT22;8100;50.994;4.538;2023-08-17T12:35:07;22.10;1.00
15991;DHT22;8100;50.994;4.538;2023-08-17T12:37:55;22.40;1.00
15991;DHT22;8100;50.994;4.538;2023-08-17T12:40:43;22.50;1.00
15991;DHT22;8100;50.994;4.538;2023-08-17T12:43:30;22.70;1.00
15991;DHT22;8100;50.994;4.538;2023-08-17T12:46:18;22.70;1.00
15991;DHT22;8100;50.994;4.538;2023-08-17T12:49:05;22.60;1.00
15991;DHT22;8100;50.994;4.538;2023-08-17T12:51:53;22.80;1.00
15991;DHT22;8100;50.994;4.538;2023-08-17T12:54:40;22.70;1.00
15991;DHT22;8100;50.994;4.538;2023-08-17T12:57:29;22.50;1.00
15991;DHT22;8100;50.994;4.538;2023-08-17T13:00:17;22.60;1.00
15991;DHT22;8100;50.994;4.538;2023-08-17T13:03:04;22.60;1.00
15991;DHT22;8100;50.994;4.538;2023-08-17T13:05:51;22.90;1.00
15991;DHT22;8100;50.994;4.538;2023-08-17T13:08:39;23.10;1.00
15991;DHT22;8100;50.994;4.538;2023-08-17T13:11:26;23.00;1.00
15991;DHT22;8100;50.994;4.538;2023-08-17T13:14:15;23.10;1.00
15991;DHT22;8100;50.994;4.538;2023-08-17T13:17:03;23.30;1.00
15991;DHT22;8100;50.994;4.538;2023-08-17T13:19:50;23.10;1.00
15991;DHT22;8100;50.994;4.538;2023-08-17T13:22:37;23.00;1.00
15991;DHT22;8100;50.994;4.538;2023-08-17T13:25:25;23.10;1.00
15991;DHT22;8100;50.994;4.538;2023-08-17T13:28:12;23.20;1.00
15991;DHT22;8100;50.994;4.538;2023-08-17T13:31:01;23.20;1.00
15991;DHT22;8100;50.994;4.538;2023-08-17T13:33:48;22.90;1.00
15991;DHT22;8100;50.994;4.538;2023-08-17T13:36:35;22.80;1.00
15991;DHT22;8100;50.994;4.538;2023-08-17T13:39:23;22.90;1.00
15991;DHT22;8100;50.994;4.538;2023-08-17T13:42:10;22.90;1.00
15991;DHT22;8100;50.994;4.538;2023-08-17T13:44:57;22.90;1.00
15991;DHT22;8100;50.994;4.538;2023-08-17T13:47:46;22.60;1.00
15991;DHT22;8100;50.994;4.538;2023-08-17T13:50:33;22.50;1.00
15991;DHT22;8100;50.994;4.538;2023-08-17T13:53:21;22.80;1.00
15991;DHT22;8100;50.994;4.538;2023-08-17T13:56:08;22.80;1.00
15991;DHT22;8100;50.994;4.538;2023-08-17T13:58:55;22.90;1.00
15991;DHT22;8100;50.994;4.538;2023-08-17T14:01:42;23.10;1.00
15991;DHT22;8100;50.994;4.538;2023-08-17T14:04:31;23.10;1.00
15991;DHT22;8100;50.994;4.538;2023-08-17T14:07:18;23.50;1.00
15991;DHT22;8100;50.994;4.538;2023-08-17T14:10:06;23.70;1.00
15991;DHT22;8100;50.994;4.538;2023-08-17T14:12:54;23.50;1.00
15991;DHT22;8100;50.994;4.538;2023-08-17T14:15:41;23.10;1.00
15991;DHT22;8100;50.994;4.538;2023-08-17T14:18:28;23.30;1.00
15991;DHT22;8100;50.994;4.538;2023-08-17T14:21:17;23.20;1.00
15991;DHT22;8100;50.994;4.538;2023-08-17T14:24:05;23.20;1.00
15991;DHT22;8100;50.994;4.538;2023-08-17T14:26:54;23.40;1.00
15991;DHT22;8100;50.994;4.538;2023-08-17T14:29:42;23.50;1.00
15991;DHT22;8100;50.994;4.538;2023-08-17T14:32:30;23.70;1.00
15991;DHT22;8100;50.994;4.538;2023-08-17T14:35:17;23.50;1.00
15991;DHT22;8100;50.994;4.538;2023-08-17T14:38:05;23.30;1.00
15991;DHT22;8100;50.994;4.538;2023-08-17T14:40:55;23.10;1.00
15991;DHT22;8100;50.994;4.538;2023-08-17T14:43:42;22.80;1.00
15991;DHT22;8100;50.994;4.538;2023-08-17T14:46:29;22.70;1.00
15991;DHT22;8100;50.994;4.538;2023-08-17T14:49:17;22.50;1.00
15991;DHT22;8100;50.994;4.538;2023-08-17T14:52:05;22.30;1.00
15991;DHT22;8100;50.994;4.538;2023-08-17T14:54:53;22.40;1.00
15991;DHT22;8100;50.994;4.538;2023-08-17T14:57:41;22.30;1.00
15991;DHT22;8100;50.994;4.538;2023-08-17T15:00:28;22.30;1.00
15991;DHT22;8100;50.994;4.538;2023-08-17T15:03:15;22.50;1.00
15991;DHT22;8100;50.994;4.538;2023-08-17T15:06:03;22.60;1.00
15991;DHT22;8100;50.994;4.538;2023-08-17T15:08:50;22.50;1.00
15991;DHT22;8100;50.994;4.538;2023-08-17T15:11:39;22.50;1.00
15991;DHT22;8100;50.994;4.538;2023-08-17T15:14:26;22.50;1.00
15991;DHT22;8100;50.994;4.538;2023-08-17T15:17:13;22.60;1.00
15991;DHT22;8100;50.994;4.538;2023-08-17T15:20:01;22.40;1.00
15991;DHT22;8100;50.994;4.538;2023-08-17T15:22:49;22.40;1.00
15991;DHT22;8100;50.994;4.538;2023-08-17T15:25:36;22.40;1.00
15991;DHT22;8100;50.994;4.538;2023-08-17T15:28:25;22.60;1.00
15991;DHT22;8100;50.994;4.538;2023-08-17T15:31:12;23.10;1.00
15991;DHT22;8100;50.994;4.538;2023-08-17T15:33:59;22.80;1.00
15991;DHT22;8100;50.994;4.538;2023-08-17T15:36:47;22.60;1.00
15991;DHT22;8100;50.994;4.538;2023-08-17T15:39:34;22.50;1.00
15991;DHT22;8100;50.994;4.538;2023-08-17T15:42:21;22.60;1.00
15991;DHT22;8100;50.994;4.538;2023-08-17T15:45:10;22.60;1.00
15991;DHT22;8100;50.994;4.538;2023-08-17T15:47:58;22.70;1.00
15991;DHT22;8100;50.994;4.538;2023-08-17T15:50:45;22.90;1.00
15991;DHT22;8100;50.994;4.538;2023-08-17T15:53:32;22.90;1.00
15991;DHT22;8100;50.994;4.538;2023-08-17T15:56:20;22.90;1.00
15991;DHT22;8100;50.994;4.538;2023-08-17T15:59:07;23.10;1.00
15991;DHT22;8100;50.994;4.538;2023-08-17T16:01:56;23.10;1.00
15991;DHT22;8100;50.994;4.538;2023-08-17T16:04:43;23.20;1.00
15991;DHT22;8100;50.994;4.538;2023-08-17T16:07:30;23.10;1.00
15991;DHT22;8100;50.994;4.538;2023-08-17T16:10:18;23.00;1.00
15991;DHT22;8100;50.994;4.538;2023-08-17T16:13:05;23.50;1.00
15991;DHT22;8100;50.994;4.538;2023-08-17T16:15:52;24.60;1.00
15991;DHT22;8100;50.994;4.538;2023-08-17T16:18:41;24.00;1.00
15991;DHT22;8100;50.994;4.538;2023-08-17T16:21:28;23.40;1.00
15991;DHT22;8100;50.994;4.538;2023-08-17T16:24:15;23.00;1.00
15991;DHT22;8100;50.994;4.538;2023-08-17T16:27:03;22.50;1.00
15991;DHT22;8100;50.994;4.538;2023-08-17T16:29:51;22.40;1.00
15991;DHT22;8100;50.994;4.538;2023-08-17T16:32:38;22.40;1.00
15991;DHT22;8100;50.994;4.538;2023-08-17T16:35:26;22.70;1.00
15991;DHT22;8100;50.994;4.538;2023-08-17T16:38:14;22.90;1.00
15991;DHT22;8100;50.994;4.538;2023-08-17T16:41:01;22.70;1.00
15991;DHT22;8100;50.994;4.538;2023-08-17T16:43:49;22.80;1.00
15991;DHT22;8100;50.994;4.538;2023-08-17T16:46:36;22.80;1.00
15991;DHT22;8100;50.994;4.538;2023-08-17T16:49:23;22.60;1.00
15991;DHT22;8100;50.994;4.538;2023-08-17T16:52:12;22.40;1.00
15991;DHT22;8100;50.994;4.538;2023-08-17T16:54:59;22.50;1.00
15991;DHT22;8100;50.994;4.538;2023-08-17T16:57:47;22.40;1.00
15991;DHT22;8100;50.994;4.538;2023-08-17T17:00:34;22.10;1.00
15991;DHT22;8100;50.994;4.538;2023-08-17T17:03:21;22.00;1.00
15991;DHT22;8100;50.994;4.538;2023-08-17T17:06:09;21.70;1.00
15991;DHT22;8100;50.994;4.538;2023-08-17T17:08:58;21.70;1.00
15991;DHT22;8100;50.994;4.538;2023-08-17T17:11:46;21.70;87.00
15991;DHT22;8100;50.994;4.538;2023-08-17T17:14:33;21.70;99.90
15991;DHT22;8100;50.994;4.538;2023-08-17T17:17:20;21.80;99.90
15991;DHT22;8100;50.994;4.538;2023-08-17T17:20:08;21.90;99.90
15991;DHT22;8100;50.994;4.538;2023-08-17T17:22:56;21.70;99.90
15991;DHT22;8100;50.994;4.538;2023-08-17T17:25:45;21.60;99.90
15991;DHT22;8100;50.994;4.538;2023-08-17T17:28:32;21.60;99.90
15991;DHT22;8100;50.994;4.538;2023-08-17T17:31:19;21.50;99.90
15991;DHT22;8100;50.994;4.538;2023-08-17T17:34:06;21.60;99.90
15991;DHT22;8100;50.994;4.538;2023-08-17T17:36:54;21.60;99.90
15991;DHT22;8100;50.994;4.538;2023-08-17T17:39:41;21.50;1.00
15991;DHT22;8100;50.994;4.538;2023-08-17T17:42:30;21.40;1.00
15991;DHT22;8100;50.994;4.538;2023-08-17T17:45:17;21.20;1.00
15991;DHT22;8100;50.994;4.538;2023-08-17T17:48:05;21.30;1.00
15991;DHT22;8100;50.994;4.538;2023-08-17T17:50:52;21.20;1.00
15991;DHT22;8100;50.994;4.538;2023-08-17T17:53:39;21.10;99.90
15991;DHT22;8100;50.994;4.538;2023-08-17T17:56:36;21.20;99.90
15991;DHT22;8100;50.994;4.538;2023-08-17T17:59:25;21.20;99.90
15991;DHT22;8100;50.994;4.538;2023-08-17T18:02:13;21.00;99.90
15991;DHT22;8100;50.994;4.538;2023-08-17T18:05:00;20.90;99.90
15991;DHT22;8100;50.994;4.538;2023-08-17T18:07:47;20.90;1.00
15991;DHT22;8100;50.994;4.538;2023-08-17T18:10:36;20.90;1.00
15991;DHT22;8100;50.994;4.538;2023-08-17T18:13:23;20.80;1.00